createdAt,value
2023-04-08T00:01:44.446Z,52.72
2023-04-08T00:04:14.480Z,52.97
2023-04-08T00:06:42.923Z,52.97
2023-04-08T00:09:11.095Z,53.10
2023-04-08T00:11:39.138Z,53.27
2023-04-08T00:14:07.209Z,53.28
2023-04-08T00:16:36.933Z,53.16
2023-04-08T00:19:06.624Z,53.07
2023-04-08T00:21:34.699Z,53.07
2023-04-08T00:24:02.947Z,53.04
2023-04-08T00:26:31.014Z,53.03
2023-04-08T00:28:59.268Z,53.22
2023-04-08T00:31:27.382Z,53.39
2023-04-08T00:33:57.067Z,53.81
2023-04-08T00:36:27.759Z,54.20
2023-04-08T00:38:56.594Z,54.07
2023-04-08T00:41:24.637Z,53.91
2023-04-08T00:43:53.765Z,53.81
2023-04-08T00:46:22.651Z,53.81
2023-04-08T00:48:51.394Z,53.74
2023-04-08T00:51:21.348Z,53.79
2023-04-08T00:53:49.406Z,53.98
2023-04-08T00:56:17.442Z,53.92
2023-04-08T00:58:45.539Z,53.68
2023-04-08T01:01:20.534Z,53.46
2023-04-08T01:03:59.295Z,52.94
2023-04-08T01:06:36.905Z,53.03
2023-04-08T01:09:07.217Z,53.08
2023-04-08T01:11:36.440Z,52.90
2023-04-08T01:14:07.505Z,52.92
2023-04-08T01:16:36.198Z,52.91
2023-04-08T01:19:06.175Z,52.81
2023-04-08T01:21:37.423Z,52.69
2023-04-08T01:24:12.624Z,52.63
2023-04-08T01:26:42.573Z,52.85
2023-04-08T01:29:13.753Z,52.98
2023-04-08T01:31:43.108Z,53.05
2023-04-08T01:34:12.789Z,53.08
2023-04-08T01:36:41.808Z,53.16
2023-04-08T01:39:10.406Z,53.12
2023-04-08T01:41:39.440Z,53.13
2023-04-08T01:44:10.127Z,53.14
2023-04-08T01:46:40.056Z,53.26
2023-04-08T01:49:09.034Z,53.27
2023-04-08T01:51:39.515Z,53.23
2023-04-08T01:54:07.913Z,53.24
2023-04-08T01:56:40.391Z,53.17
2023-04-08T01:59:13.958Z,53.16
2023-04-08T02:01:44.318Z,53.35
2023-04-08T02:04:13.881Z,53.38
2023-04-08T02:06:42.234Z,53.32
2023-04-08T02:09:10.254Z,53.37
2023-04-08T02:11:38.589Z,53.36
2023-04-08T02:14:06.782Z,53.36
2023-04-08T02:16:43.770Z,53.03
2023-04-08T02:19:18.760Z,53.17
2023-04-08T02:21:51.021Z,53.20
2023-04-08T02:24:20.111Z,53.21
2023-04-08T02:26:51.853Z,53.12
2023-04-08T02:29:20.406Z,53.24
2023-04-08T02:31:51.215Z,53.34
2023-04-08T02:34:22.207Z,53.39
2023-04-08T02:36:51.215Z,53.54
2023-04-08T02:39:19.498Z,53.69
2023-04-08T02:41:50.327Z,53.65
2023-04-08T02:44:18.352Z,53.81
2023-04-08T02:46:46.383Z,53.81
2023-04-08T02:49:15.819Z,53.78
2023-04-08T02:51:43.900Z,53.62
2023-04-08T02:54:11.992Z,53.44
2023-04-08T02:56:40.064Z,53.46
2023-04-08T02:59:08.095Z,53.45
2023-04-08T03:01:36.332Z,53.40
2023-04-08T03:04:04.403Z,53.49
2023-04-08T03:06:33.820Z,53.52
2023-04-08T03:09:01.875Z,53.49
2023-04-08T03:11:29.962Z,53.40
2023-04-08T03:13:58.017Z,53.34
2023-04-08T03:16:26.152Z,53.33
2023-04-08T03:18:54.287Z,53.27
2023-04-08T03:21:22.312Z,53.24
2023-04-08T03:23:51.734Z,53.23
2023-04-08T03:26:19.861Z,53.39
2023-04-08T03:28:48.112Z,53.30
2023-04-08T03:31:16.505Z,53.27
2023-04-08T03:33:44.534Z,53.28
2023-04-08T03:36:12.553Z,53.28
2023-04-08T03:38:40.659Z,53.27
2023-04-08T03:41:10.052Z,53.30
2023-04-08T03:43:38.216Z,53.36
2023-04-08T03:46:06.402Z,53.37
2023-04-08T03:48:34.486Z,53.27
2023-04-08T03:51:02.598Z,53.27
2023-04-08T03:53:30.887Z,53.42
2023-04-08T03:55:59.124Z,53.57
2023-04-08T03:58:28.554Z,53.54
2023-04-08T04:00:56.616Z,53.44
2023-04-08T04:03:24.970Z,53.43
2023-04-08T04:05:53.121Z,53.43
2023-04-08T04:08:21.207Z,53.49
2023-04-08T04:10:49.234Z,53.51
2023-04-08T04:13:17.324Z,53.37
2023-04-08T04:15:46.814Z,53.46
2023-04-08T04:18:14.994Z,53.52
2023-04-08T04:20:43.154Z,53.48
2023-04-08T04:23:11.288Z,53.34
2023-04-08T04:25:42.686Z,53.16
2023-04-08T04:28:10.861Z,53.12
2023-04-08T04:30:39.430Z,53.15
2023-04-08T04:33:09.073Z,53.07
2023-04-08T04:35:37.125Z,52.95
2023-04-08T04:38:08.134Z,52.87
2023-04-08T04:40:36.272Z,52.82
2023-04-08T04:43:04.296Z,52.75
2023-04-08T04:45:32.386Z,52.91
2023-04-08T04:48:00.496Z,52.82
2023-04-08T04:50:29.967Z,52.84
2023-04-08T04:52:58.030Z,52.75
2023-04-08T04:55:26.629Z,52.80
2023-04-08T04:57:54.653Z,52.75
2023-04-08T05:00:22.836Z,52.72
2023-04-08T05:02:50.977Z,52.77
2023-04-08T05:05:19.239Z,52.81
2023-04-08T05:07:48.748Z,52.65
2023-04-08T05:10:16.860Z,52.53
2023-04-08T05:12:45.027Z,52.47
2023-04-08T05:15:13.132Z,52.51
2023-04-08T05:17:41.373Z,52.59
2023-04-08T05:20:10.230Z,52.69
2023-04-08T05:22:38.273Z,52.74
2023-04-08T05:25:08.499Z,52.58
2023-04-08T05:27:36.800Z,52.53
2023-04-08T05:30:05.625Z,52.43
2023-04-08T05:32:33.735Z,52.41
2023-04-08T05:35:04.414Z,52.33
2023-04-08T05:37:32.536Z,52.37
2023-04-08T05:40:00.535Z,52.39
2023-04-08T05:42:29.960Z,52.46
2023-04-08T05:44:57.998Z,52.45
2023-04-08T05:47:26.137Z,52.49
2023-04-08T05:49:54.285Z,52.46
2023-04-08T05:52:22.456Z,52.53
2023-04-08T05:54:50.471Z,52.52
2023-04-08T05:57:18.556Z,52.54
2023-04-08T05:59:47.964Z,52.52
2023-04-08T06:02:16.115Z,52.44
2023-04-08T06:04:44.385Z,52.35
2023-04-08T06:07:12.598Z,52.43
2023-04-08T06:09:40.624Z,52.46
2023-04-08T06:12:08.680Z,52.43
2023-04-08T06:14:36.695Z,52.51
2023-04-08T06:17:06.187Z,52.55
2023-04-08T06:19:34.340Z,52.56
2023-04-08T06:22:02.403Z,52.47
2023-04-08T06:24:30.891Z,52.32
2023-04-08T06:26:58.937Z,52.43
2023-04-08T06:29:27.148Z,52.48
2023-04-08T06:31:55.299Z,52.62
2023-04-08T06:34:24.753Z,52.67
2023-04-08T06:36:52.768Z,52.72
2023-04-08T06:39:21.611Z,52.65
2023-04-08T06:41:49.688Z,52.68
2023-04-08T06:44:33.885Z,52.49
2023-04-08T06:47:01.883Z,52.45
2023-04-08T06:49:31.359Z,52.36
2023-04-08T06:51:59.416Z,52.36
2023-04-08T06:54:27.515Z,52.38
2023-04-08T06:56:55.705Z,52.39
2023-04-08T06:59:23.700Z,52.57
2023-04-08T07:01:51.906Z,52.65
2023-04-08T07:04:20.192Z,52.59
2023-04-08T07:06:50.037Z,52.41
2023-04-08T07:09:18.119Z,52.49
2023-04-08T07:11:46.148Z,52.56
2023-04-08T07:14:14.359Z,52.58
2023-04-08T07:16:42.452Z,52.62
2023-04-08T07:19:10.736Z,52.07
2023-04-08T07:21:38.794Z,51.67
2023-04-08T07:24:08.448Z,51.19
2023-04-08T07:26:36.893Z,51.40
2023-04-08T07:29:04.900Z,51.10
2023-04-08T07:31:33.032Z,50.80
2023-04-08T07:34:01.128Z,50.93
2023-04-08T07:36:29.302Z,50.92
2023-04-08T07:38:57.531Z,50.81
2023-04-08T07:41:27.138Z,50.67
2023-04-08T07:43:55.938Z,50.63
2023-04-08T07:46:24.002Z,50.65
2023-04-08T07:48:53.070Z,50.59
2023-04-08T07:51:21.630Z,50.52
2023-04-08T07:53:49.776Z,50.58
2023-04-08T07:56:18.688Z,50.51
2023-04-08T07:58:52.876Z,50.56
2023-04-08T08:01:23.598Z,50.72
2023-04-08T08:03:53.590Z,50.48
2023-04-08T08:06:22.272Z,50.33
2023-04-08T08:08:50.413Z,50.37
2023-04-08T08:11:18.466Z,50.48
2023-04-08T08:13:48.007Z,50.53
2023-04-08T08:16:16.484Z,50.53
2023-04-08T08:18:44.525Z,50.48
2023-04-08T08:21:12.910Z,50.48
2023-04-08T08:23:41.128Z,50.51
2023-04-08T08:26:11.065Z,50.87
2023-04-08T08:28:39.499Z,50.98
2023-04-08T08:31:09.013Z,51.12
2023-04-08T08:33:37.083Z,50.93
2023-04-08T08:36:07.240Z,50.82
2023-04-08T08:38:35.440Z,51.04
2023-04-08T08:41:04.599Z,50.81
2023-04-08T08:43:33.648Z,50.32
2023-04-08T08:46:01.891Z,50.05
2023-04-08T08:48:32.380Z,50.03
2023-04-08T08:51:00.438Z,50.26
2023-04-08T08:53:35.020Z,50.25
2023-04-08T08:58:34.780Z,50.92
2023-04-08T09:01:02.853Z,50.60
2023-04-08T09:03:32.627Z,50.54
2023-04-08T09:06:03.973Z,50.54
2023-04-08T09:08:33.377Z,50.48
2023-04-08T09:11:15.730Z,50.24
2023-04-08T09:13:44.270Z,50.22
2023-04-08T09:16:14.155Z,50.34
2023-04-08T09:18:44.794Z,50.28
2023-04-08T09:21:13.827Z,50.11
2023-04-08T09:23:43.738Z,49.75
2023-04-08T09:26:13.294Z,49.86
2023-04-08T09:28:42.444Z,49.31
2023-04-08T09:31:24.907Z,49.26
2023-04-08T09:33:55.633Z,49.58
2023-04-08T09:36:23.940Z,49.54
2023-04-08T09:38:51.956Z,49.22
2023-04-08T09:41:23.498Z,49.19
2023-04-08T09:43:54.299Z,48.81
2023-04-08T09:46:28.162Z,48.90
2023-04-08T09:49:11.990Z,48.89
2023-04-08T09:51:45.560Z,49.08
2023-04-08T09:54:16.521Z,49.22
2023-04-08T09:56:50.597Z,49.46
2023-04-08T09:59:21.866Z,49.66
2023-04-08T10:01:54.211Z,49.13
2023-04-08T10:04:27.705Z,49.04
2023-04-08T10:06:59.503Z,48.66
2023-04-08T10:09:29.371Z,48.76
2023-04-08T10:11:57.473Z,48.47
2023-04-08T10:14:28.656Z,47.91
2023-04-08T10:17:28.495Z,47.41
2023-04-08T10:19:58.699Z,47.57
2023-04-08T10:22:51.708Z,48.11
2023-04-08T10:25:33.619Z,47.60
2023-04-08T10:28:03.360Z,47.04
2023-04-08T10:30:41.961Z,46.38
2023-04-08T10:33:12.352Z,46.50
2023-04-08T10:35:44.249Z,46.23
2023-04-08T10:38:13.397Z,46.23
2023-04-08T10:40:42.685Z,46.28
2023-04-08T10:43:11.611Z,45.97
2023-04-08T10:45:40.039Z,45.79
2023-04-08T10:48:15.492Z,45.73
2023-04-08T10:50:45.702Z,46.00
2023-04-08T10:53:13.832Z,45.75
2023-04-08T10:55:43.766Z,45.93
2023-04-08T10:58:12.762Z,45.69
2023-04-08T11:00:41.663Z,45.44
2023-04-08T11:03:13.048Z,45.41
2023-04-08T11:05:42.480Z,45.70
2023-04-08T11:08:11.922Z,45.32
2023-04-08T11:10:40.198Z,44.82
2023-04-08T11:13:09.900Z,44.99
2023-04-08T11:15:39.618Z,44.87
2023-04-08T11:18:08.344Z,44.61
2023-04-08T11:20:37.242Z,44.64
2023-04-08T11:23:05.346Z,44.61
2023-04-08T11:25:35.148Z,44.65
2023-04-08T11:28:03.672Z,44.26
2023-04-08T11:30:32.561Z,43.82
2023-04-08T11:33:00.837Z,43.87
2023-04-08T11:35:30.884Z,44.18
2023-04-08T11:37:59.055Z,44.28
2023-04-08T11:40:27.555Z,44.28
2023-04-08T11:42:57.037Z,44.87
2023-04-08T11:45:25.074Z,44.56
2023-04-08T11:47:54.220Z,44.24
2023-04-08T11:50:25.687Z,44.06
2023-04-08T11:52:55.429Z,43.62
2023-04-08T11:55:25.009Z,43.77
2023-04-08T11:57:53.494Z,43.72
2023-04-08T12:00:23.454Z,43.91
2023-04-08T12:02:53.028Z,44.13
2023-04-08T12:05:21.736Z,43.41
2023-04-08T12:07:49.757Z,43.22
2023-04-08T12:10:17.925Z,43.40
2023-04-08T12:12:45.991Z,43.09
2023-04-08T12:15:14.085Z,43.21
2023-04-08T12:17:43.801Z,43.62
2023-04-08T12:20:12.835Z,43.78
2023-04-08T12:22:41.257Z,44.07
2023-04-08T12:25:10.059Z,43.60
2023-04-08T12:27:38.063Z,43.20
2023-04-08T12:30:06.964Z,42.57
2023-04-08T12:32:35.611Z,42.49
2023-04-08T12:35:05.505Z,42.00
2023-04-08T12:37:34.239Z,41.72
2023-04-08T12:40:02.697Z,42.13
2023-04-08T12:42:31.315Z,42.15
2023-04-08T12:44:59.307Z,41.55
2023-04-08T12:47:27.515Z,40.94
2023-04-08T12:49:55.705Z,41.55
2023-04-08T12:52:25.388Z,41.24
2023-04-08T12:54:53.526Z,41.88
2023-04-08T12:57:21.852Z,41.81
2023-04-08T12:59:49.976Z,41.66
2023-04-08T13:02:19.278Z,41.32
2023-04-08T13:04:47.696Z,41.11
2023-04-08T13:07:16.473Z,40.70
2023-04-08T13:09:46.701Z,40.01
2023-04-08T13:12:16.218Z,40.00
2023-04-08T13:14:44.286Z,40.05
2023-04-08T13:17:12.396Z,40.33
2023-04-08T13:19:40.450Z,39.71
2023-04-08T13:22:08.455Z,40.05
2023-04-08T13:24:36.492Z,39.52
2023-04-08T13:27:05.924Z,39.27
2023-04-08T13:29:33.967Z,38.62
2023-04-08T13:32:02.645Z,38.53
2023-04-08T13:34:31.042Z,38.14
2023-04-08T13:36:59.309Z,38.88
2023-04-08T13:39:27.368Z,39.29
2023-04-08T13:41:58.134Z,39.33
2023-04-08T13:44:27.982Z,38.53
2023-04-08T13:46:56.160Z,38.50
2023-04-08T13:49:24.237Z,38.33
2023-04-08T13:51:54.586Z,38.36
2023-04-08T13:54:22.764Z,37.30
2023-04-08T13:56:50.881Z,35.91
2023-04-08T13:59:18.919Z,36.14
2023-04-08T14:01:48.446Z,34.83
2023-04-08T14:04:16.572Z,34.90
2023-04-08T14:06:44.883Z,34.53
2023-04-08T14:09:13.058Z,35.50
2023-04-08T14:11:41.221Z,35.01
2023-04-08T14:14:09.229Z,35.37
2023-04-08T14:16:37.317Z,35.73
2023-04-08T14:19:06.784Z,36.32
2023-04-08T14:21:34.850Z,37.30
2023-04-08T14:24:03.003Z,36.35
2023-04-08T14:26:33.249Z,35.69
2023-04-08T14:29:01.366Z,36.11
2023-04-08T14:31:29.378Z,37.28
2023-04-08T14:33:57.454Z,36.30
2023-04-08T14:36:27.934Z,35.74
2023-04-08T14:38:56.491Z,34.37
2023-04-08T14:41:28.364Z,34.24
2023-04-08T14:43:56.604Z,34.82
2023-04-08T14:46:26.569Z,34.07
2023-04-08T14:48:56.744Z,33.76
2023-04-08T14:51:26.207Z,34.28
2023-04-08T14:53:54.315Z,33.96
2023-04-08T14:56:22.405Z,33.47
2023-04-08T14:58:50.780Z,33.81
2023-04-08T15:01:19.111Z,33.36
2023-04-08T15:03:47.557Z,33.29
2023-04-08T15:06:17.752Z,33.75
2023-04-08T15:08:47.188Z,34.60
2023-04-08T15:11:15.528Z,34.52
2023-04-08T15:13:43.539Z,34.42
2023-04-08T15:16:11.702Z,33.76
2023-04-08T15:18:39.900Z,34.33
2023-04-08T15:21:07.977Z,34.63
2023-04-08T15:23:36.620Z,34.34
2023-04-08T15:26:06.156Z,34.72
2023-04-08T15:28:34.153Z,35.35
2023-04-08T15:31:02.324Z,35.50
2023-04-08T15:33:30.358Z,35.87
2023-04-08T15:36:03.119Z,35.91
2023-04-08T15:38:33.536Z,35.84
2023-04-08T15:41:01.749Z,35.56
2023-04-08T15:43:31.503Z,35.53
2023-04-08T15:45:59.582Z,35.69
2023-04-08T15:48:30.446Z,36.10
2023-04-08T15:50:58.547Z,36.47
2023-04-08T15:53:26.664Z,36.84
2023-04-08T15:55:59.141Z,37.21
2023-04-08T15:58:27.234Z,37.81
2023-04-08T16:01:00.480Z,38.30
2023-04-08T16:03:28.635Z,38.67
2023-04-08T16:05:56.858Z,38.84
2023-04-08T16:08:24.860Z,38.69
2023-04-08T16:10:53.068Z,38.63
2023-04-08T16:13:21.076Z,38.88
2023-04-08T16:15:49.185Z,39.30
2023-04-08T16:18:18.601Z,39.42
2023-04-08T16:20:46.639Z,39.37
2023-04-08T16:23:15.648Z,39.61
2023-04-08T16:25:43.674Z,39.91
2023-04-08T16:28:12.017Z,39.97
2023-04-08T16:30:43.516Z,39.75
2023-04-08T16:33:11.895Z,39.96
2023-04-08T16:35:41.438Z,40.23
2023-04-08T16:38:09.667Z,40.42
2023-04-08T16:40:39.230Z,40.36
2023-04-08T16:43:07.313Z,40.17
2023-04-08T16:45:35.499Z,40.30
2023-04-08T16:48:03.597Z,40.49
2023-04-08T16:50:31.928Z,40.84
2023-04-08T16:53:01.612Z,41.16
2023-04-08T16:55:33.025Z,41.20
2023-04-08T16:58:01.354Z,41.30
2023-04-08T17:00:30.436Z,41.51
2023-04-08T17:02:59.168Z,41.66
2023-04-08T17:05:30.262Z,41.88
2023-04-08T17:07:58.565Z,42.02
2023-04-08T17:10:28.089Z,42.56
2023-04-08T17:12:57.816Z,42.74
2023-04-08T17:15:26.317Z,42.90
2023-04-08T17:17:54.509Z,42.91
2023-04-08T17:20:22.612Z,43.02
2023-04-08T17:22:51.014Z,43.18
2023-04-08T17:25:19.068Z,43.52
2023-04-08T17:27:48.596Z,43.65
2023-04-08T17:30:16.663Z,43.83
2023-04-08T17:32:44.782Z,43.93
2023-04-08T17:35:13.331Z,44.23
2023-04-08T17:37:41.452Z,44.25
2023-04-08T17:40:10.573Z,44.13
2023-04-08T17:42:38.613Z,44.03
2023-04-08T17:45:09.806Z,44.03
2023-04-08T17:47:38.119Z,44.13
2023-04-08T17:50:07.367Z,44.22
2023-04-08T17:52:35.435Z,44.18
2023-04-08T17:55:03.499Z,44.42
2023-04-08T17:57:31.717Z,44.57
2023-04-08T17:59:59.809Z,44.53
2023-04-08T18:02:29.331Z,44.52
2023-04-08T18:04:58.533Z,44.60
2023-04-08T18:07:26.540Z,44.75
2023-04-08T18:09:54.605Z,44.98
2023-04-08T18:12:22.797Z,44.98
2023-04-08T18:14:50.831Z,44.97
2023-04-08T18:17:18.910Z,44.94
2023-04-08T18:19:48.323Z,44.91
2023-04-08T18:22:16.485Z,44.94
2023-04-08T18:24:44.528Z,45.12
2023-04-08T18:27:12.680Z,45.14
2023-04-08T18:29:40.745Z,45.19
2023-04-08T18:32:08.854Z,45.37
2023-04-08T18:34:36.869Z,45.61
2023-04-08T18:37:06.360Z,45.90
2023-04-08T18:39:34.435Z,46.14
2023-04-08T18:42:02.833Z,46.17
2023-04-08T18:44:30.957Z,46.63
2023-04-08T18:46:59.388Z,46.70
2023-04-08T18:49:30.170Z,46.67
2023-04-08T18:52:02.925Z,46.73
2023-04-08T18:54:33.020Z,46.56
2023-04-08T18:57:01.292Z,46.70
2023-04-08T18:59:30.027Z,46.73
2023-04-08T19:01:58.485Z,46.82
2023-04-08T19:04:26.814Z,46.73
2023-04-08T19:06:55.008Z,46.74
2023-04-08T19:09:23.492Z,46.75
2023-04-08T19:11:52.898Z,46.96
2023-04-08T19:14:20.944Z,46.96
2023-04-08T19:16:49.100Z,46.91
2023-04-08T19:19:17.281Z,46.93
2023-04-08T19:21:45.357Z,47.16
2023-04-08T19:24:13.426Z,47.19
2023-04-08T19:26:41.657Z,47.31
2023-04-08T19:29:11.965Z,47.47
2023-04-08T19:31:40.941Z,47.43
2023-04-08T19:34:09.054Z,47.35
2023-04-08T19:36:37.054Z,47.50
2023-04-08T19:39:05.791Z,47.65
2023-04-08T19:41:34.044Z,47.58
2023-04-08T19:44:02.170Z,47.52
2023-04-08T19:46:32.635Z,47.51
2023-04-08T19:49:00.891Z,47.44
2023-04-08T19:51:29.414Z,47.73
2023-04-08T19:53:57.744Z,47.91
2023-04-08T19:56:26.459Z,47.86
2023-04-08T19:58:54.785Z,47.81
2023-04-08T20:01:26.696Z,47.89
2023-04-08T20:03:56.350Z,47.78
2023-04-08T20:06:24.544Z,47.83
2023-04-08T20:08:53.680Z,47.93
2023-04-08T20:11:22.197Z,48.05
2023-04-08T20:13:51.362Z,48.15
2023-04-08T20:16:19.608Z,48.09
2023-04-08T20:18:47.977Z,48.08
2023-04-08T20:21:20.252Z,48.00
2023-04-08T20:23:48.348Z,48.23
2023-04-08T20:26:16.917Z,48.31
2023-04-08T20:28:46.020Z,48.41
2023-04-08T20:31:14.475Z,48.47
2023-04-08T20:33:45.362Z,48.50
2023-04-08T20:36:13.623Z,48.57
2023-04-08T20:38:43.140Z,48.65
2023-04-08T20:41:11.390Z,48.70
2023-04-08T20:43:40.596Z,48.68
2023-04-08T20:46:09.283Z,48.64
2023-04-08T20:48:39.589Z,48.53
2023-04-08T20:51:07.803Z,48.50
2023-04-08T20:53:35.912Z,48.54
2023-04-08T20:56:06.089Z,48.53
2023-04-08T20:58:34.323Z,49.29
2023-04-08T21:01:02.507Z,49.37
2023-04-08T21:03:30.676Z,49.52
2023-04-08T21:06:01.701Z,50.00
2023-04-08T21:08:29.763Z,49.81
2023-04-08T21:10:57.977Z,49.86
2023-04-08T21:13:27.581Z,50.30
2023-04-08T21:15:55.757Z,49.99
2023-04-08T21:18:24.113Z,49.75
2023-04-08T21:20:52.244Z,50.27
2023-04-08T21:23:21.439Z,50.26
2023-04-08T21:25:49.493Z,50.20
2023-04-08T21:28:17.747Z,50.05
2023-04-08T21:30:49.552Z,50.31
2023-04-08T21:33:17.616Z,50.63
2023-04-08T21:35:45.783Z,50.59
2023-04-08T21:38:13.820Z,50.80
2023-04-08T21:40:42.851Z,51.06
2023-04-08T21:43:12.819Z,50.63
2023-04-08T21:45:41.034Z,50.30
2023-04-08T21:48:10.619Z,50.29
2023-04-08T21:50:41.853Z,50.37
2023-04-08T21:53:09.924Z,50.27
2023-04-08T21:55:38.053Z,50.19
2023-04-08T21:58:06.264Z,50.37
2023-04-08T22:00:34.860Z,50.27
2023-04-08T22:03:07.061Z,50.11
2023-04-08T22:05:36.862Z,49.98
2023-04-08T22:08:05.020Z,50.34
2023-04-08T22:10:33.125Z,50.37
2023-04-08T22:13:01.325Z,50.32
2023-04-08T22:15:29.706Z,50.18
2023-04-08T22:17:58.923Z,50.53
2023-04-08T22:20:27.084Z,50.84
2023-04-08T22:22:56.638Z,50.64
2023-04-08T22:25:24.613Z,50.74
2023-04-08T22:27:52.711Z,50.76
2023-04-08T22:30:21.467Z,50.80
2023-04-08T22:32:49.543Z,50.81
2023-04-08T22:35:17.739Z,51.03
2023-04-08T22:37:45.967Z,51.17
2023-04-08T22:40:15.735Z,51.14
2023-04-08T22:42:43.956Z,51.10
2023-04-08T22:45:12.251Z,50.93
2023-04-08T22:47:40.370Z,51.11
2023-04-08T22:50:09.199Z,51.37
2023-04-08T22:52:37.251Z,51.33
2023-04-08T22:55:06.353Z,51.17
2023-04-08T22:57:36.172Z,51.11
2023-04-08T23:00:04.969Z,51.11
2023-04-08T23:02:33.151Z,50.96
2023-04-08T23:05:01.233Z,50.79
2023-04-08T23:07:29.318Z,50.70
2023-04-08T23:09:57.354Z,50.69
2023-04-08T23:12:25.419Z,50.75
2023-04-08T23:14:54.982Z,50.65
2023-04-08T23:17:23.099Z,50.62
2023-04-08T23:19:51.385Z,50.74
2023-04-08T23:22:19.449Z,50.85
2023-04-08T23:24:47.525Z,51.19
2023-04-08T23:27:15.564Z,51.20
2023-04-08T23:29:43.604Z,51.17
2023-04-08T23:32:13.039Z,51.08
2023-04-08T23:34:41.071Z,50.97
2023-04-08T23:37:09.132Z,51.05
2023-04-08T23:39:37.216Z,50.95
2023-04-08T23:42:05.600Z,50.84
2023-04-08T23:44:33.683Z,50.88
2023-04-08T23:47:01.780Z,51.02
2023-04-08T23:49:31.158Z,51.12
2023-04-08T23:51:59.192Z,51.19
2023-04-08T23:54:30.463Z,51.11
2023-04-08T23:56:58.514Z,51.11
2023-04-08T23:59:28.788Z,51.27
